sensor_id;sensor_type;location;lat;lon;timestamp;pressure;altitude;pressure_sealevel;temperature;humidity
59272;BME280;45043;51.068;7.026;2022-10-15T00:01:33;99658.59;;;11.60;71.72
59272;BME280;45043;51.068;7.026;2022-10-15T00:04:33;99641.03;;;11.59;71.83
59272;BME280;45043;51.068;7.026;2022-10-15T00:07:34;99656.19;;;11.59;71.77
59272;BME280;45043;51.068;7.026;2022-10-15T00:10:35;99660.31;;;11.55;71.82
59272;BME280;45043;51.068;7.026;2022-10-15T00:13:36;99661.50;;;11.59;71.96
59272;BME280;45043;51.068;7.026;2022-10-15T00:16:37;99663.94;;;11.60;71.67
59272;BME280;45043;51.068;7.026;2022-10-15T00:19:38;99649.69;;;11.55;71.57
59272;BME280;45043;51.068;7.026;2022-10-15T00:22:38;99643.38;;;11.49;71.60
59272;BME280;45043;51.068;7.026;2022-10-15T00:25:38;99627.97;;;11.39;71.79
59272;BME280;45043;51.068;7.026;2022-10-15T00:28:41;99629.34;;;11.42;72.03
59272;BME280;45043;51.068;7.026;2022-10-15T00:31:42;99624.94;;;11.36;72.10
59272;BME280;45043;51.068;7.026;2022-10-15T00:34:43;99617.41;;;11.33;72.44
59272;BME280;45043;51.068;7.026;2022-10-15T00:37:43;99616.53;;;11.20;72.51
59272;BME280;45043;51.068;7.026;2022-10-15T00:40:44;99629.97;;;11.26;72.38
59272;BME280;45043;51.068;7.026;2022-10-15T00:43:48;99634.41;;;11.32;72.57
59272;BME280;45043;51.068;7.026;2022-10-15T00:46:52;99628.19;;;11.38;72.50
59272;BME280;45043;51.068;7.026;2022-10-15T00:53:08;99624.50;;;11.39;72.18
59272;BME280;45043;51.068;7.026;2022-10-15T00:56:10;99627.75;;;11.41;72.09
59272;BME280;45043;51.068;7.026;2022-10-15T00:59:13;99621.00;;;11.38;72.25
59272;BME280;45043;51.068;7.026;2022-10-15T01:02:16;99610.59;;;11.37;71.98
59272;BME280;45043;51.068;7.026;2022-10-15T01:05:17;99617.97;;;11.35;72.22
59272;BME280;45043;51.068;7.026;2022-10-15T01:08:18;99625.97;;;11.35;72.37
59272;BME280;45043;51.068;7.026;2022-10-15T01:18:13;99628.91;;;11.27;72.68
59272;BME280;45043;51.068;7.026;2022-10-15T01:31:28;99634.97;;;11.34;72.78
59272;BME280;45043;51.068;7.026;2022-10-15T01:34:48;99639.84;;;11.37;72.35
59272;BME280;45043;51.068;7.026;2022-10-15T01:38:32;99645.84;;;11.32;72.24
59272;BME280;45043;51.068;7.026;2022-10-15T01:41:44;99634.03;;;11.28;72.62
59272;BME280;45043;51.068;7.026;2022-10-15T01:44:54;99632.00;;;11.24;72.99
59272;BME280;45043;51.068;7.026;2022-10-15T01:48:11;99632.00;;;11.24;72.59
59272;BME280;45043;51.068;7.026;2022-10-15T01:51:14;99633.88;;;11.23;73.05
59272;BME280;45043;51.068;7.026;2022-10-15T01:54:18;99632.19;;;11.29;72.85
59272;BME280;45043;51.068;7.026;2022-10-15T01:57:22;99632.38;;;11.27;73.03
59272;BME280;45043;51.068;7.026;2022-10-15T02:00:24;99626.25;;;11.27;72.88
59272;BME280;45043;51.068;7.026;2022-10-15T02:03:25;99615.63;;;11.27;73.22
59272;BME280;45043;51.068;7.026;2022-10-15T02:06:41;99618.53;;;11.25;73.05
59272;BME280;45043;51.068;7.026;2022-10-15T02:09:59;99613.13;;;11.32;73.02
59272;BME280;45043;51.068;7.026;2022-10-15T02:16:26;99611.03;;;11.34;72.79
59272;BME280;45043;51.068;7.026;2022-10-15T02:22:42;99617.09;;;11.41;72.37
59272;BME280;45043;51.068;7.026;2022-10-15T02:25:49;99617.91;;;11.41;72.67
59272;BME280;45043;51.068;7.026;2022-10-15T02:28:54;99614.56;;;11.46;72.36
59272;BME280;45043;51.068;7.026;2022-10-15T02:31:56;99612.16;;;11.44;72.65
59272;BME280;45043;51.068;7.026;2022-10-15T02:34:59;99619.09;;;11.45;72.56
59272;BME280;45043;51.068;7.026;2022-10-15T02:38:04;99624.63;;;11.44;72.08
59272;BME280;45043;51.068;7.026;2022-10-15T02:41:08;99623.09;;;11.36;72.56
59272;BME280;45043;51.068;7.026;2022-10-15T02:44:09;99632.75;;;11.31;72.70
59272;BME280;45043;51.068;7.026;2022-10-15T02:47:10;99628.91;;;11.27;72.67
59272;BME280;45043;51.068;7.026;2022-10-15T02:50:12;99624.03;;;11.24;72.75
59272;BME280;45043;51.068;7.026;2022-10-15T02:53:13;99614.59;;;11.28;72.96
59272;BME280;45043;51.068;7.026;2022-10-15T02:56:16;99615.19;;;11.30;73.12
59272;BME280;45043;51.068;7.026;2022-10-15T02:59:17;99620.44;;;11.36;72.65
59272;BME280;45043;51.068;7.026;2022-10-15T03:02:19;99630.84;;;11.38;72.63
59272;BME280;45043;51.068;7.026;2022-10-15T03:05:21;99628.63;;;11.35;72.70
59272;BME280;45043;51.068;7.026;2022-10-15T03:08:22;99630.09;;;11.31;72.75
59272;BME280;45043;51.068;7.026;2022-10-15T03:11:22;99623.84;;;11.25;72.95
59272;BME280;45043;51.068;7.026;2022-10-15T03:14:23;99619.56;;;11.24;72.85
59272;BME280;45043;51.068;7.026;2022-10-15T03:17:23;99621.31;;;11.30;72.68
59272;BME280;45043;51.068;7.026;2022-10-15T03:20:24;99612.66;;;11.35;72.85
59272;BME280;45043;51.068;7.026;2022-10-15T03:23:25;99611.03;;;11.34;72.86
59272;BME280;45043;51.068;7.026;2022-10-15T03:26:36;99619.63;;;11.36;72.67
59272;BME280;45043;51.068;7.026;2022-10-15T03:29:36;99609.44;;;11.33;72.80
59272;BME280;45043;51.068;7.026;2022-10-15T03:32:37;99595.09;;;11.34;72.46
59272;BME280;45043;51.068;7.026;2022-10-15T03:35:39;99598.72;;;11.39;72.71
59272;BME280;45043;51.068;7.026;2022-10-15T03:38:40;99610.59;;;11.37;72.58
59272;BME280;45043;51.068;7.026;2022-10-15T03:41:45;99608.19;;;11.35;72.30
59272;BME280;45043;51.068;7.026;2022-10-15T03:44:53;99609.00;;;11.36;72.53
59272;BME280;45043;51.068;7.026;2022-10-15T03:47:54;99589.34;;;11.37;71.91
59272;BME280;45043;51.068;7.026;2022-10-15T03:50:56;99593.03;;;11.36;72.56
59272;BME280;45043;51.068;7.026;2022-10-15T03:53:57;99588.72;;;11.35;72.29
59272;BME280;45043;51.068;7.026;2022-10-15T03:56:58;99588.97;;;11.33;72.33
59272;BME280;45043;51.068;7.026;2022-10-15T04:00:06;99590.81;;;11.33;72.30
59272;BME280;45043;51.068;7.026;2022-10-15T04:03:13;99593.91;;;11.30;72.25
59272;BME280;45043;51.068;7.026;2022-10-15T04:06:14;99585.19;;;11.23;72.46
59272;BME280;45043;51.068;7.026;2022-10-15T04:09:14;99596.81;;;11.28;72.33
59272;BME280;45043;51.068;7.026;2022-10-15T04:12:16;99616.06;;;11.24;72.20
59272;BME280;45043;51.068;7.026;2022-10-15T04:15:16;99614.31;;;11.17;72.46
59272;BME280;45043;51.068;7.026;2022-10-15T04:18:25;99604.78;;;11.10;71.92
59272;BME280;45043;51.068;7.026;2022-10-15T04:21:29;99618.28;;;11.08;72.38
59272;BME280;45043;51.068;7.026;2022-10-15T04:24:33;99605.88;;;11.02;72.47
59272;BME280;45043;51.068;7.026;2022-10-15T04:27:34;99616.06;;;11.05;72.52
59272;BME280;45043;51.068;7.026;2022-10-15T04:30:46;99620.78;;;11.03;72.79
59272;BME280;45043;51.068;7.026;2022-10-15T04:33:48;99628.34;;;11.06;72.66
59272;BME280;45043;51.068;7.026;2022-10-15T04:36:49;99619.81;;;10.97;73.24
59272;BME280;45043;51.068;7.026;2022-10-15T04:39:53;99617.97;;;10.98;72.89
59272;BME280;45043;51.068;7.026;2022-10-15T04:42:54;99627.28;;;11.07;72.74
59272;BME280;45043;51.068;7.026;2022-10-15T04:45:57;99619.09;;;11.09;72.70
59272;BME280;45043;51.068;7.026;2022-10-15T04:48:58;99593.03;;;11.17;72.71
59272;BME280;45043;51.068;7.026;2022-10-15T04:51:59;99589.78;;;11.34;72.58
59272;BME280;45043;51.068;7.026;2022-10-15T04:55:07;99590.78;;;11.51;71.83
59272;BME280;45043;51.068;7.026;2022-10-15T04:58:08;99595.94;;;11.64;71.30
59272;BME280;45043;51.068;7.026;2022-10-15T05:01:11;99599.50;;;11.77;70.63
59272;BME280;45043;51.068;7.026;2022-10-15T05:04:32;99597.56;;;11.84;70.45
59272;BME280;45043;51.068;7.026;2022-10-15T05:07:33;99599.53;;;11.88;70.00
59272;BME280;45043;51.068;7.026;2022-10-15T05:10:33;99604.19;;;11.93;69.90
59272;BME280;45043;51.068;7.026;2022-10-15T05:13:38;99600.03;;;11.97;69.56
59272;BME280;45043;51.068;7.026;2022-10-15T05:16:38;99598.69;;;12.06;69.20
59272;BME280;45043;51.068;7.026;2022-10-15T05:19:39;99611.31;;;12.23;68.59
59272;BME280;45043;51.068;7.026;2022-10-15T05:22:44;99612.72;;;12.25;68.28
59272;BME280;45043;51.068;7.026;2022-10-15T05:25:46;99619.22;;;12.29;68.00
59272;BME280;45043;51.068;7.026;2022-10-15T05:28:55;99625.94;;;12.32;67.95
59272;BME280;45043;51.068;7.026;2022-10-15T05:32:00;99612.94;;;12.24;67.98
59272;BME280;45043;51.068;7.026;2022-10-15T05:35:02;99614.09;;;12.28;67.66
59272;BME280;45043;51.068;7.026;2022-10-15T05:38:20;99611.78;;;12.20;67.82
59272;BME280;45043;51.068;7.026;2022-10-15T05:41:21;99618.59;;;12.15;67.83
59272;BME280;45043;51.068;7.026;2022-10-15T05:44:21;99626.59;;;12.15;67.70
59272;BME280;45043;51.068;7.026;2022-10-15T05:47:22;99616.53;;;12.17;67.66
59272;BME280;45043;51.068;7.026;2022-10-15T05:50:22;99618.22;;;12.12;67.63
59272;BME280;45043;51.068;7.026;2022-10-15T05:53:26;99621.94;;;12.11;67.73
59272;BME280;45043;51.068;7.026;2022-10-15T05:56:32;99615.00;;;12.10;67.68
59272;BME280;45043;51.068;7.026;2022-10-15T05:59:32;99620.22;;;12.16;67.29
59272;BME280;45043;51.068;7.026;2022-10-15T06:02:32;99619.41;;;12.16;67.33
59272;BME280;45043;51.068;7.026;2022-10-15T06:05:33;99620.69;;;12.13;67.48
59272;BME280;45043;51.068;7.026;2022-10-15T06:08:33;99621.03;;;12.17;67.35
59272;BME280;45043;51.068;7.026;2022-10-15T06:11:35;99612.38;;;12.22;66.96
59272;BME280;45043;51.068;7.026;2022-10-15T06:14:36;99615.38;;;12.13;66.97
59272;BME280;45043;51.068;7.026;2022-10-15T06:17:38;99626.19;;;12.00;67.60
59272;BME280;45043;51.068;7.026;2022-10-15T06:20:38;99627.34;;;12.04;67.33
59272;BME280;45043;51.068;7.026;2022-10-15T06:23:39;99626.47;;;12.10;67.13
59272;BME280;45043;51.068;7.026;2022-10-15T06:26:40;99630.75;;;12.11;67.26
59272;BME280;45043;51.068;7.026;2022-10-15T06:29:40;99637.69;;;12.12;66.93
59272;BME280;45043;51.068;7.026;2022-10-15T06:32:51;99626.22;;;12.12;66.83
59272;BME280;45043;51.068;7.026;2022-10-15T06:35:52;99634.91;;;12.07;66.70
59272;BME280;45043;51.068;7.026;2022-10-15T06:38:53;99637.28;;;11.97;66.93
59272;BME280;45043;51.068;7.026;2022-10-15T06:41:53;99641.44;;;11.93;66.72
59272;BME280;45043;51.068;7.026;2022-10-15T06:45:18;99649.22;;;11.95;67.28
59272;BME280;45043;51.068;7.026;2022-10-15T06:48:39;99651.91;;;12.06;67.22
59272;BME280;45043;51.068;7.026;2022-10-15T06:51:45;99654.47;;;12.13;66.78
59272;BME280;45043;51.068;7.026;2022-10-15T06:54:45;99651.00;;;12.12;66.57
59272;BME280;45043;51.068;7.026;2022-10-15T06:57:48;99651.34;;;12.16;66.85
59272;BME280;45043;51.068;7.026;2022-10-15T07:00:50;99648.81;;;12.09;66.70
59272;BME280;45043;51.068;7.026;2022-10-15T07:03:50;99668.63;;;12.13;66.87
59272;BME280;45043;51.068;7.026;2022-10-15T07:06:51;99656.31;;;12.12;66.77
59272;BME280;45043;51.068;7.026;2022-10-15T07:09:52;99658.78;;;12.14;66.71
59272;BME280;45043;51.068;7.026;2022-10-15T07:12:54;99666.53;;;12.15;66.56
59272;BME280;45043;51.068;7.026;2022-10-15T07:15:55;99666.44;;;12.22;66.52
59272;BME280;45043;51.068;7.026;2022-10-15T07:18:55;99657.06;;;12.31;66.30
59272;BME280;45043;51.068;7.026;2022-10-15T07:21:56;99650.72;;;12.32;66.09
59272;BME280;45043;51.068;7.026;2022-10-15T07:24:56;99650.69;;;12.21;66.31
59272;BME280;45043;51.068;7.026;2022-10-15T07:27:57;99656.69;;;12.16;66.74
59272;BME280;45043;51.068;7.026;2022-10-15T07:31:05;99659.56;;;12.14;66.66
59272;BME280;45043;51.068;7.026;2022-10-15T07:34:06;99651.59;;;12.14;66.61
59272;BME280;45043;51.068;7.026;2022-10-15T07:37:06;99654.81;;;12.16;66.66
59272;BME280;45043;51.068;7.026;2022-10-15T07:40:07;99648.34;;;12.12;66.66
59272;BME280;45043;51.068;7.026;2022-10-15T07:43:08;99644.41;;;12.15;66.46
59272;BME280;45043;51.068;7.026;2022-10-15T07:46:10;99656.69;;;12.16;66.55
59272;BME280;45043;51.068;7.026;2022-10-15T07:49:11;99657.44;;;12.05;66.81
59272;BME280;45043;51.068;7.026;2022-10-15T07:52:12;99649.81;;;12.08;67.04
59272;BME280;45043;51.068;7.026;2022-10-15T07:55:12;99649.47;;;12.05;66.48
59272;BME280;45043;51.068;7.026;2022-10-15T07:58:13;99651.63;;;11.96;67.12
59272;BME280;45043;51.068;7.026;2022-10-15T08:01:13;99627.19;;;11.87;67.87
59272;BME280;45043;51.068;7.026;2022-10-15T08:04:14;99639.81;;;11.92;67.74
59272;BME280;45043;51.068;7.026;2022-10-15T08:07:15;99645.16;;;11.92;67.67
59272;BME280;45043;51.068;7.026;2022-10-15T08:10:16;99638.56;;;11.95;67.86
59272;BME280;45043;51.068;7.026;2022-10-15T08:13:17;99628.25;;;11.98;67.65
59272;BME280;45043;51.068;7.026;2022-10-15T08:16:22;99627.91;;;11.95;67.69
59272;BME280;45043;51.068;7.026;2022-10-15T08:19:31;99619.81;;;12.01;67.60
59272;BME280;45043;51.068;7.026;2022-10-15T08:22:33;99615.66;;;12.05;67.49
59272;BME280;45043;51.068;7.026;2022-10-15T08:25:34;99616.03;;;12.09;67.38
59272;BME280;45043;51.068;7.026;2022-10-15T08:28:35;99616.38;;;12.12;67.24
59272;BME280;45043;51.068;7.026;2022-10-15T08:31:36;99621.16;;;12.22;67.34
59272;BME280;45043;51.068;7.026;2022-10-15T08:34:36;99617.34;;;12.30;66.75
59272;BME280;45043;51.068;7.026;2022-10-15T08:37:37;99620.38;;;12.33;66.72
59272;BME280;45043;51.068;7.026;2022-10-15T08:40:38;99611.00;;;12.42;66.51
59272;BME280;45043;51.068;7.026;2022-10-15T08:43:42;99619.81;;;12.43;66.43
59272;BME280;45043;51.068;7.026;2022-10-15T08:46:53;99610.56;;;12.57;66.06
59272;BME280;45043;51.068;7.026;2022-10-15T08:49:58;99616.13;;;12.67;65.71
59272;BME280;45043;51.068;7.026;2022-10-15T08:53:03;99621.59;;;12.73;65.77
59272;BME280;45043;51.068;7.026;2022-10-15T08:56:12;99620.53;;;12.74;65.54
59272;BME280;45043;51.068;7.026;2022-10-15T09:02:44;99613.13;;;12.76;65.28
59272;BME280;45043;51.068;7.026;2022-10-15T09:05:56;99611.75;;;12.85;65.28
59272;BME280;45043;51.068;7.026;2022-10-15T09:13:30;99620.22;;;12.94;65.24
59272;BME280;45043;51.068;7.026;2022-10-15T09:16:34;99611.16;;;12.95;64.87
59272;BME280;45043;51.068;7.026;2022-10-15T09:19:36;99605.25;;;12.93;65.72
59272;BME280;45043;51.068;7.026;2022-10-15T09:22:39;99610.34;;;12.94;65.27
59272;BME280;45043;51.068;7.026;2022-10-15T09:25:40;99600.84;;;12.98;65.15
59272;BME280;45043;51.068;7.026;2022-10-15T09:28:55;99609.09;;;12.97;65.16
59272;BME280;45043;51.068;7.026;2022-10-15T09:35:20;99591.34;;;13.02;65.15
59272;BME280;45043;51.068;7.026;2022-10-15T09:38:54;99587.75;;;12.97;65.43
59272;BME280;45043;51.068;7.026;2022-10-15T09:45:12;99584.25;;;13.08;65.35
59272;BME280;45043;51.068;7.026;2022-10-15T09:48:17;99591.91;;;13.16;65.42
59272;BME280;45043;51.068;7.026;2022-10-15T09:51:47;99565.56;;;13.20;65.03
59272;BME280;45043;51.068;7.026;2022-10-15T09:58:32;99585.16;;;13.25;64.46
59272;BME280;45043;51.068;7.026;2022-10-15T10:01:36;99570.78;;;13.26;64.64
59272;BME280;45043;51.068;7.026;2022-10-15T10:04:37;99569.22;;;13.42;64.37
59272;BME280;45043;51.068;7.026;2022-10-15T10:07:37;99569.78;;;13.44;64.21
59272;BME280;45043;51.068;7.026;2022-10-15T10:10:38;99578.00;;;13.54;64.03
59272;BME280;45043;51.068;7.026;2022-10-15T10:17:20;99574.75;;;13.52;63.75
59272;BME280;45043;51.068;7.026;2022-10-15T10:20:27;99574.38;;;13.60;63.82
59272;BME280;45043;51.068;7.026;2022-10-15T10:23:31;99563.06;;;13.70;63.93
59272;BME280;45043;51.068;7.026;2022-10-15T10:26:34;99564.34;;;13.68;64.14
59272;BME280;45043;51.068;7.026;2022-10-15T10:29:38;99568.31;;;13.77;64.26
59272;BME280;45043;51.068;7.026;2022-10-15T10:32:40;99571.84;;;13.82;64.43
59272;BME280;45043;51.068;7.026;2022-10-15T10:35:45;99565.56;;;13.89;64.69
59272;BME280;45043;51.068;7.026;2022-10-15T10:38:57;99559.25;;;13.95;64.76
59272;BME280;45043;51.068;7.026;2022-10-15T10:42:03;99556.34;;;13.96;64.59
59272;BME280;45043;51.068;7.026;2022-10-15T10:45:20;99549.31;;;13.90;64.20
59272;BME280;45043;51.068;7.026;2022-10-15T10:48:24;99560.31;;;13.94;64.46
59272;BME280;45043;51.068;7.026;2022-10-15T10:51:26;99543.16;;;13.90;64.65
59272;BME280;45043;51.068;7.026;2022-10-15T10:54:31;99549.88;;;13.92;65.07
59272;BME280;45043;51.068;7.026;2022-10-15T11:00:51;99548.28;;;13.91;64.99
59272;BME280;45043;51.068;7.026;2022-10-15T11:03:52;99530.88;;;13.89;64.99
59272;BME280;45043;51.068;7.026;2022-10-15T11:07:12;99546.16;;;13.93;64.50
59272;BME280;45043;51.068;7.026;2022-10-15T11:10:25;99540.41;;;14.01;64.67
59272;BME280;45043;51.068;7.026;2022-10-15T11:17:06;99535.88;;;14.02;64.32
59272;BME280;45043;51.068;7.026;2022-10-15T11:23:55;99526.03;;;14.02;65.00
59272;BME280;45043;51.068;7.026;2022-10-15T11:27:13;99537.91;;;14.12;64.90
59272;BME280;45043;51.068;7.026;2022-10-15T11:30:41;99531.03;;;14.16;64.55
59272;BME280;45043;51.068;7.026;2022-10-15T11:56:44;99517.41;;;14.34;64.81
59272;BME280;45043;51.068;7.026;2022-10-15T12:03:32;99508.34;;;14.35;64.73
59272;BME280;45043;51.068;7.026;2022-10-15T12:06:39;99515.31;;;14.36;65.08
59272;BME280;45043;51.068;7.026;2022-10-15T12:09:47;99512.41;;;14.38;64.83
59272;BME280;45043;51.068;7.026;2022-10-15T12:13:05;99494.44;;;14.33;65.19
59272;BME280;45043;51.068;7.026;2022-10-15T12:16:27;99494.97;;;14.35;64.97
59272;BME280;45043;51.068;7.026;2022-10-15T12:19:40;99489.72;;;14.40;65.14
59272;BME280;45043;51.068;7.026;2022-10-15T12:25:46;99487.44;;;14.49;64.49
59272;BME280;45043;51.068;7.026;2022-10-15T12:28:50;99487.44;;;14.66;64.39
59272;BME280;45043;51.068;7.026;2022-10-15T12:31:53;99485.94;;;14.75;64.08
59272;BME280;45043;51.068;7.026;2022-10-15T12:34:59;99484.16;;;14.80;63.23
59272;BME280;45043;51.068;7.026;2022-10-15T12:38:32;99472.44;;;14.87;62.47
59272;BME280;45043;51.068;7.026;2022-10-15T12:41:42;99479.75;;;14.91;62.74
59272;BME280;45043;51.068;7.026;2022-10-15T12:44:47;99476.13;;;15.02;62.22
59272;BME280;45043;51.068;7.026;2022-10-15T12:47:52;99482.59;;;15.06;62.30
59272;BME280;45043;51.068;7.026;2022-10-15T13:00:38;99488.47;;;15.09;61.47
59272;BME280;45043;51.068;7.026;2022-10-15T13:06:48;99491.53;;;15.17;61.62
59272;BME280;45043;51.068;7.026;2022-10-15T13:09:49;99479.47;;;15.15;61.31
59272;BME280;45043;51.068;7.026;2022-10-15T13:12:55;99485.25;;;15.28;61.49
59272;BME280;45043;51.068;7.026;2022-10-15T13:16:01;99482.59;;;15.34;61.34
59272;BME280;45043;51.068;7.026;2022-10-15T13:19:06;99477.56;;;15.37;60.81
59272;BME280;45043;51.068;7.026;2022-10-15T13:22:24;99474.56;;;15.56;60.51
59272;BME280;45043;51.068;7.026;2022-10-15T13:25:25;99468.63;;;15.53;59.96
59272;BME280;45043;51.068;7.026;2022-10-15T13:31:31;99473.09;;;15.70;60.05
59272;BME280;45043;51.068;7.026;2022-10-15T13:34:35;99478.47;;;15.75;59.70
59272;BME280;45043;51.068;7.026;2022-10-15T13:37:39;99481.19;;;15.80;59.61
59272;BME280;45043;51.068;7.026;2022-10-15T13:40:46;99476.41;;;15.87;59.40
59272;BME280;45043;51.068;7.026;2022-10-15T13:43:52;99471.16;;;15.97;58.57
59272;BME280;45043;51.068;7.026;2022-10-15T13:46:57;99481.44;;;16.11;58.61
59272;BME280;45043;51.068;7.026;2022-10-15T13:50:25;99478.28;;;16.19;57.96
59272;BME280;45043;51.068;7.026;2022-10-15T13:53:27;99476.97;;;16.21;58.16
59272;BME280;45043;51.068;7.026;2022-10-15T13:56:31;99482.59;;;16.25;58.28
59272;BME280;45043;51.068;7.026;2022-10-15T13:59:32;99474.81;;;16.23;58.20
59272;BME280;45043;51.068;7.026;2022-10-15T14:02:32;99480.16;;;16.23;57.55
59272;BME280;45043;51.068;7.026;2022-10-15T14:05:33;99479.16;;;16.30;57.87
59272;BME280;45043;51.068;7.026;2022-10-15T14:08:34;99472.53;;;16.37;57.17
59272;BME280;45043;51.068;7.026;2022-10-15T14:11:36;99474.69;;;16.40;57.48
59272;BME280;45043;51.068;7.026;2022-10-15T14:14:43;99466.94;;;16.49;57.11
59272;BME280;45043;51.068;7.026;2022-10-15T14:17:50;99471.22;;;16.45;56.92
59272;BME280;45043;51.068;7.026;2022-10-15T14:20:51;99468.28;;;16.46;56.83
59272;BME280;45043;51.068;7.026;2022-10-15T14:24:01;99465.13;;;16.55;56.84
59272;BME280;45043;51.068;7.026;2022-10-15T14:27:06;99464.06;;;16.61;56.51
59272;BME280;45043;51.068;7.026;2022-10-15T14:30:13;99468.38;;;16.67;55.92
59272;BME280;45043;51.068;7.026;2022-10-15T14:36:41;99463.03;;;16.72;56.23
59272;BME280;45043;51.068;7.026;2022-10-15T14:39:46;99473.75;;;16.67;56.21
59272;BME280;45043;51.068;7.026;2022-10-15T14:45:56;99469.41;;;16.61;56.09
59272;BME280;45043;51.068;7.026;2022-10-15T14:48:57;99480.09;;;16.50;56.73
59272;BME280;45043;51.068;7.026;2022-10-15T14:52:11;99501.50;;;16.40;56.34
59272;BME280;45043;51.068;7.026;2022-10-15T14:55:25;99483.75;;;16.34;57.07
59272;BME280;45043;51.068;7.026;2022-10-15T14:58:28;99478.59;;;16.27;56.94
59272;BME280;45043;51.068;7.026;2022-10-15T15:01:29;99484.44;;;16.19;57.29
59272;BME280;45043;51.068;7.026;2022-10-15T15:04:39;99476.63;;;16.13;57.53
59272;BME280;45043;51.068;7.026;2022-10-15T15:07:39;99485.41;;;16.03;57.74
59272;BME280;45043;51.068;7.026;2022-10-15T15:10:41;99494.75;;;16.00;58.42
59272;BME280;45043;51.068;7.026;2022-10-15T15:13:43;99504.91;;;15.98;58.60
59272;BME280;45043;51.068;7.026;2022-10-15T15:16:43;99497.41;;;15.95;58.79
59272;BME280;45043;51.068;7.026;2022-10-15T15:19:44;99497.34;;;15.90;59.29
59272;BME280;45043;51.068;7.026;2022-10-15T15:22:48;99505.03;;;15.82;60.71
59272;BME280;45043;51.068;7.026;2022-10-15T15:25:50;99540.91;;;15.53;61.40
59272;BME280;45043;51.068;7.026;2022-10-15T15:28:51;99543.81;;;15.25;62.98
59272;BME280;45043;51.068;7.026;2022-10-15T15:31:52;99553.75;;;15.08;64.01
59272;BME280;45043;51.068;7.026;2022-10-15T15:34:53;99571.38;;;14.87;65.01
59272;BME280;45043;51.068;7.026;2022-10-15T15:37:55;99545.59;;;14.58;65.99
59272;BME280;45043;51.068;7.026;2022-10-15T15:41:01;99560.81;;;14.41;67.36
59272;BME280;45043;51.068;7.026;2022-10-15T15:44:02;99574.00;;;14.31;67.83
59272;BME280;45043;51.068;7.026;2022-10-15T15:47:10;99581.03;;;14.20;68.37
59272;BME280;45043;51.068;7.026;2022-10-15T15:50:10;99572.94;;;13.98;69.05
59272;BME280;45043;51.068;7.026;2022-10-15T15:53:11;99593.66;;;13.91;69.23
59272;BME280;45043;51.068;7.026;2022-10-15T15:56:11;99585.22;;;13.82;69.85
59272;BME280;45043;51.068;7.026;2022-10-15T15:59:12;99584.41;;;13.82;69.79
59272;BME280;45043;51.068;7.026;2022-10-15T16:02:12;99589.75;;;13.82;69.92
59272;BME280;45043;51.068;7.026;2022-10-15T16:05:15;99601.22;;;13.82;70.22
59272;BME280;45043;51.068;7.026;2022-10-15T16:08:16;99606.22;;;13.79;70.18
59272;BME280;45043;51.068;7.026;2022-10-15T16:11:17;99617.38;;;13.76;70.44
59272;BME280;45043;51.068;7.026;2022-10-15T16:14:17;99597.56;;;13.60;70.46
59272;BME280;45043;51.068;7.026;2022-10-15T16:17:17;99590.38;;;13.60;70.56
59272;BME280;45043;51.068;7.026;2022-10-15T16:20:20;99602.09;;;13.59;70.68
59272;BME280;45043;51.068;7.026;2022-10-15T16:23:21;99610.03;;;13.43;70.90
59272;BME280;45043;51.068;7.026;2022-10-15T16:26:21;99611.91;;;13.42;70.82
59272;BME280;45043;51.068;7.026;2022-10-15T16:29:22;99622.94;;;13.34;70.79
59272;BME280;45043;51.068;7.026;2022-10-15T16:32:23;99635.13;;;13.30;71.06
59272;BME280;45043;51.068;7.026;2022-10-15T16:35:24;99642.44;;;13.23;71.02
59272;BME280;45043;51.068;7.026;2022-10-15T16:38:24;99646.28;;;13.15;71.26
59272;BME280;45043;51.068;7.026;2022-10-15T16:41:25;99650.69;;;13.09;71.33
59272;BME280;45043;51.068;7.026;2022-10-15T16:44:25;99651.03;;;13.01;71.26
59272;BME280;45043;51.068;7.026;2022-10-15T16:47:26;99651.50;;;12.98;71.27
59272;BME280;45043;51.068;7.026;2022-10-15T16:50:26;99653.34;;;12.98;71.12
59272;BME280;45043;51.068;7.026;2022-10-15T16:53:27;99650.69;;;12.98;71.36
59272;BME280;45043;51.068;7.026;2022-10-15T16:56:29;99654.41;;;12.97;70.99
59272;BME280;45043;51.068;7.026;2022-10-15T16:59:30;99658.22;;;13.01;70.69
59272;BME280;45043;51.068;7.026;2022-10-15T17:02:31;99680.38;;;13.01;70.71
59272;BME280;45043;51.068;7.026;2022-10-15T17:05:31;99680.47;;;12.95;70.14
59272;BME280;45043;51.068;7.026;2022-10-15T17:08:40;99696.25;;;12.96;70.12
59272;BME280;45043;51.068;7.026;2022-10-15T17:11:42;99708.31;;;12.99;69.65
59272;BME280;45043;51.068;7.026;2022-10-15T17:14:49;99712.81;;;12.98;69.84
59272;BME280;45043;51.068;7.026;2022-10-15T17:17:50;99721.75;;;12.92;69.11
59272;BME280;45043;51.068;7.026;2022-10-15T17:20:51;99732.63;;;12.90;69.41
59272;BME280;45043;51.068;7.026;2022-10-15T17:23:53;99737.97;;;12.90;69.17
59272;BME280;45043;51.068;7.026;2022-10-15T17:26:54;99737.84;;;12.85;69.11
59272;BME280;45043;51.068;7.026;2022-10-15T17:29:57;99744.09;;;12.79;68.99
59272;BME280;45043;51.068;7.026;2022-10-15T17:32:57;99748.03;;;12.77;69.01
59272;BME280;45043;51.068;7.026;2022-10-15T17:36:10;99772.03;;;12.77;68.64
59272;BME280;45043;51.068;7.026;2022-10-15T17:39:13;99780.03;;;12.77;68.93
59272;BME280;45043;51.068;7.026;2022-10-15T17:42:14;99768.63;;;12.70;68.34
59272;BME280;45043;51.068;7.026;2022-10-15T17:45:15;99796.44;;;12.74;68.45
59272;BME280;45043;51.068;7.026;2022-10-15T17:48:16;99800.16;;;12.73;68.46
59272;BME280;45043;51.068;7.026;2022-10-15T17:51:21;99803.63;;;12.73;68.24
59272;BME280;45043;51.068;7.026;2022-10-15T17:54:26;99804.28;;;12.69;68.23
59272;BME280;45043;51.068;7.026;2022-10-15T17:57:27;99804.50;;;12.67;68.04
59272;BME280;45043;51.068;7.026;2022-10-15T18:00:27;99794.91;;;12.66;67.54
59272;BME280;45043;51.068;7.026;2022-10-15T18:03:28;99793.03;;;12.66;67.60
59272;BME280;45043;51.068;7.026;2022-10-15T18:06:28;99805.78;;;12.64;67.17